Time;durP1;ratioP1;P1;durP2;ratioP2;P2;SDS_P1;SDS_P2;PMS_P1;PMS_P2;Temp;Humidity;BMP_temperature;BMP_pressure;BME280_temperature;BME280_humidity;BME280_pressure;Samples;Min_cycle;Max_cycle;Signal;HPM_P1;HPM_P2
2024/03/04 00:01:04;;;;;;;6.75;5.55;;;;;;;;;;5053974;28;20396;-58
2024/03/04 00:03:32;;;;;;;8.30;6.55;;;;;;;;;;5053603;28;20128;-58
2024/03/04 00:05:59;;;;;;;9.65;6.45;;;;;;;;;;5054494;28;20362;-58
2024/03/04 00:08:25;;;;;;;8.80;6.40;;;;;;;;;;5054263;28;20068;-58
2024/03/04 00:10:51;;;;;;;8.57;6.45;;;;;;;;;;5053636;28;20032;-58
2024/03/04 00:13:17;;;;;;;6.82;5.65;;;;;;;;;;5053533;28;20051;-58
2024/03/04 00:15:43;;;;;;;9.90;7.45;;;;;;;;;;5054324;28;20081;-58
2024/03/04 00:18:10;;;;;;;7.30;5.68;;;;;;;;;;5054112;28;20036;-58
2024/03/04 00:20:36;;;;;;;6.30;5.63;;;;;;;;;;5053499;28;20021;-58
2024/03/04 00:23:04;;;;;;;8.60;6.80;;;;;;;;;;5053373;28;20036;-57
2024/03/04 00:25:31;;;;;;;8.85;6.78;;;;;;;;;;5053487;28;20115;-58
2024/03/04 00:27:57;;;;;;;6.18;5.30;;;;;;;;;;5054263;28;20036;-58
2024/03/04 00:30:24;;;;;;;7.80;6.03;;;;;;;;;;5054258;28;20052;-58
2024/03/04 00:32:51;;;;;;;12.45;6.18;;;;;;;;;;5053398;28;20141;-57
2024/03/04 00:35:17;;;;;;;14.23;6.13;;;;;;;;;;5053417;28;20391;-58
2024/03/04 00:37:43;;;;;;;6.55;5.85;;;;;;;;;;5053351;28;20038;-57
2024/03/04 00:40:09;;;;;;;7.03;6.32;;;;;;;;;;5053134;28;20064;-58
2024/03/04 00:42:37;;;;;;;8.10;6.15;;;;;;;;;;5052932;28;20025;-58
2024/03/04 00:45:05;;;;;;;8.45;7.57;;;;;;;;;;5053336;28;20033;-58
2024/03/04 00:47:31;;;;;;;9.88;7.00;;;;;;;;;;5053220;28;20033;-57
2024/03/04 00:49:57;;;;;;;8.48;6.28;;;;;;;;;;5053532;28;20036;-58
2024/03/04 00:52:24;;;;;;;11.68;7.78;;;;;;;;;;5053949;28;20025;-58
2024/03/04 00:54:50;;;;;;;8.73;6.85;;;;;;;;;;5053637;28;20102;-58
2024/03/04 00:57:16;;;;;;;8.00;7.20;;;;;;;;;;5052699;28;20049;-58
2024/03/04 00:59:43;;;;;;;8.82;6.72;;;;;;;;;;5053410;28;20030;-58
2024/03/04 01:02:10;;;;;;;9.23;7.13;;;;;;;;;;5053046;28;20120;-58
2024/03/04 01:04:36;;;;;;;11.50;6.88;;;;;;;;;;5056761;28;20037;-58
2024/03/04 01:07:02;;;;;;;12.38;6.93;;;;;;;;;;5057180;28;20384;-58
2024/03/04 01:09:28;;;;;;;8.05;6.13;;;;;;;;;;5057436;28;20029;-58
2024/03/04 01:11:54;;;;;;;11.98;6.70;;;;;;;;;;5056525;28;20064;-58
2024/03/04 01:14:20;;;;;;;8.68;6.85;;;;;;;;;;5056882;28;20067;-58
2024/03/04 01:16:49;;;;;;;8.75;6.97;;;;;;;;;;5056787;28;20017;-57
2024/03/04 01:19:16;;;;;;;12.63;6.90;;;;;;;;;;5056715;28;20025;-58
2024/03/04 01:21:42;;;;;;;11.15;7.63;;;;;;;;;;5056625;28;20029;-58
2024/03/04 01:24:11;;;;;;;8.30;6.32;;;;;;;;;;5056483;28;20477;-58
2024/03/04 01:26:37;;;;;;;9.27;7.63;;;;;;;;;;5057333;28;20033;-58
2024/03/04 01:29:03;;;;;;;7.90;6.35;;;;;;;;;;5056974;28;20021;-58
2024/03/04 01:31:29;;;;;;;8.88;6.32;;;;;;;;;;5056492;28;20024;-58
2024/03/04 01:33:55;;;;;;;8.25;6.75;;;;;;;;;;5056903;28;20025;-58
2024/03/04 01:36:21;;;;;;;8.20;6.90;;;;;;;;;;5056317;28;20048;-58
2024/03/04 01:38:48;;;;;;;8.35;6.85;;;;;;;;;;5056906;28;20029;-58
2024/03/04 01:41:14;;;;;;;8.13;6.70;;;;;;;;;;5056258;28;20094;-58
2024/03/04 01:43:40;;;;;;;7.70;6.85;;;;;;;;;;5055840;28;20493;-58
2024/03/04 01:46:08;;;;;;;9.70;6.80;;;;;;;;;;5056239;28;20033;-57
2024/03/04 01:48:35;;;;;;;8.48;6.68;;;;;;;;;;5056188;28;20035;-58
2024/03/04 01:51:01;;;;;;;8.68;6.32;;;;;;;;;;5056630;28;20036;-58
2024/03/04 01:53:28;;;;;;;7.22;5.88;;;;;;;;;;5055778;28;20072;-58
2024/03/04 01:55:55;;;;;;;8.05;7.18;;;;;;;;;;5056347;28;20033;-58
2024/03/04 01:58:21;;;;;;;7.88;5.93;;;;;;;;;;5056209;28;20459;-58
2024/03/04 02:00:51;;;;;;;10.85;6.78;;;;;;;;;;5055701;28;20092;-58
2024/03/04 02:03:17;;;;;;;7.35;5.70;;;;;;;;;;5056852;28;20412;-58
2024/03/04 02:05:45;;;;;;;10.57;7.85;;;;;;;;;;5055842;28;20033;-58
2024/03/04 02:08:12;;;;;;;9.88;7.07;;;;;;;;;;5056628;28;20025;-58
2024/03/04 02:10:38;;;;;;;8.68;7.22;;;;;;;;;;5056234;28;20033;-58
2024/03/04 02:13:04;;;;;;;9.70;7.22;;;;;;;;;;5055785;28;20032;-57
2024/03/04 02:15:37;;;;;;;9.10;6.65;;;;;;;;;;5054983;28;20043;-58
2024/03/04 02:18:05;;;;;;;10.25;7.45;;;;;;;;;;5056178;28;20403;-58
2024/03/04 02:20:33;;;;;;;8.70;6.53;;;;;;;;;;5055508;28;20036;-58
2024/03/04 02:22:58;;;;;;;8.43;6.70;;;;;;;;;;5055394;28;20119;-58
2024/03/04 02:25:24;;;;;;;9.15;7.28;;;;;;;;;;5055485;28;20160;-58
2024/03/04 02:27:50;;;;;;;8.07;7.20;;;;;;;;;;5055402;28;20032;-58
2024/03/04 02:30:16;;;;;;;9.52;7.47;;;;;;;;;;5055359;28;20409;-59
2024/03/04 02:32:42;;;;;;;11.50;8.48;;;;;;;;;;5055025;28;20408;-57
2024/03/04 02:35:08;;;;;;;8.57;7.18;;;;;;;;;;5054998;28;20025;-58
2024/03/04 02:37:36;;;;;;;8.93;7.47;;;;;;;;;;5055212;28;20057;-57
2024/03/04 02:40:06;;;;;;;13.82;10.27;;;;;;;;;;5055753;28;20064;-58
2024/03/04 02:42:32;;;;;;;11.07;8.30;;;;;;;;;;5055747;28;20036;-58
2024/03/04 02:44:58;;;;;;;12.45;8.23;;;;;;;;;;5054928;28;20041;-58
2024/03/04 02:47:24;;;;;;;10.32;9.13;;;;;;;;;;5055049;28;20021;-58
2024/03/04 02:49:50;;;;;;;13.38;10.32;;;;;;;;;;5055190;28;20052;-58
2024/03/04 02:52:16;;;;;;;11.00;9.10;;;;;;;;;;5055721;28;20086;-58
2024/03/04 02:54:42;;;;;;;11.85;9.38;;;;;;;;;;5054898;28;20033;-57
2024/03/04 02:57:08;;;;;;;10.18;8.60;;;;;;;;;;5054803;28;20502;-58
2024/03/04 02:59:34;;;;;;;12.02;8.80;;;;;;;;;;5055359;28;20459;-58
2024/03/04 03:02:00;;;;;;;13.13;10.88;;;;;;;;;;5055273;28;20025;-58
2024/03/04 03:04:26;;;;;;;10.77;9.18;;;;;;;;;;5054529;28;20029;-58
2024/03/04 03:06:52;;;;;;;10.75;9.75;;;;;;;;;;5054361;28;20470;-57
2024/03/04 03:09:18;;;;;;;13.73;9.75;;;;;;;;;;5055128;28;20043;-57
2024/03/04 03:11:45;;;;;;;16.30;10.32;;;;;;;;;;5054571;28;20044;-58
2024/03/04 03:14:11;;;;;;;14.13;10.85;;;;;;;;;;5054542;28;20029;-57
2024/03/04 03:16:37;;;;;;;10.23;9.15;;;;;;;;;;5054222;28;20031;-58
2024/03/04 03:19:05;;;;;;;11.07;8.45;;;;;;;;;;5054747;28;20067;-58
2024/03/04 03:21:33;;;;;;;12.88;10.80;;;;;;;;;;5054861;28;20025;-58
2024/03/04 03:24:00;;;;;;;10.57;8.98;;;;;;;;;;5054310;28;20348;-57
2024/03/04 03:26:26;;;;;;;11.70;10.48;;;;;;;;;;5053939;28;20068;-58
2024/03/04 03:28:52;;;;;;;12.75;9.77;;;;;;;;;;5054397;28;20482;-58
2024/03/04 03:31:23;;;;;;;11.63;9.93;;;;;;;;;;5054211;28;20112;-57
2024/03/04 03:33:48;;;;;;;14.93;10.13;;;;;;;;;;5054386;28;20503;-58
2024/03/04 03:36:14;;;;;;;10.15;9.05;;;;;;;;;;5054087;28;20120;-58
2024/03/04 03:38:40;;;;;;;10.88;9.35;;;;;;;;;;5054710;28;20124;-58
2024/03/04 03:41:06;;;;;;;12.90;9.65;;;;;;;;;;5054083;28;20020;-58
2024/03/04 03:43:32;;;;;;;14.98;10.48;;;;;;;;;;5054483;28;20037;-57
2024/03/04 03:45:58;;;;;;;11.48;10.38;;;;;;;;;;5053964;28;20044;-57
2024/03/04 03:48:25;;;;;;;10.60;9.40;;;;;;;;;;5054521;28;20032;-58
2024/03/04 03:50:51;;;;;;;10.95;9.10;;;;;;;;;;5053898;28;20028;-58
2024/03/04 03:53:17;;;;;;;13.23;10.60;;;;;;;;;;5054419;28;20057;-57
2024/03/04 03:55:44;;;;;;;11.52;10.15;;;;;;;;;;5053550;28;20068;-58
2024/03/04 03:58:10;;;;;;;13.43;10.57;;;;;;;;;;5053387;28;20132;-57
2024/03/04 04:00:38;;;;;;;13.80;10.10;;;;;;;;;;5053511;28;20108;-58
2024/03/04 04:03:04;;;;;;;12.48;10.55;;;;;;;;;;5054201;28;20063;-58
2024/03/04 04:05:30;;;;;;;16.10;11.93;;;;;;;;;;5054266;28;20375;-58
2024/03/04 04:07:57;;;;;;;14.02;10.70;;;;;;;;;;5054053;28;20078;-58
2024/03/04 04:10:23;;;;;;;12.07;10.35;;;;;;;;;;5054429;28;20021;-58
2024/03/04 04:12:51;;;;;;;14.98;11.73;;;;;;;;;;5053687;28;20037;-58
2024/03/04 04:15:18;;;;;;;15.05;11.73;;;;;;;;;;5053595;28;20131;-58
2024/03/04 04:17:44;;;;;;;13.77;11.52;;;;;;;;;;5053586;28;20081;-58
2024/03/04 04:20:11;;;;;;;13.20;10.35;;;;;;;;;;5054142;28;20033;-58
2024/03/04 04:22:37;;;;;;;13.80;11.27;;;;;;;;;;5053803;28;20029;-57
2024/03/04 04:25:03;;;;;;;13.95;11.40;;;;;;;;;;5053440;28;20202;-58
2024/03/04 04:27:29;;;;;;;14.73;11.73;;;;;;;;;;5053915;28;20417;-58
2024/03/04 04:29:55;;;;;;;14.27;11.27;;;;;;;;;;5053258;28;20024;-58
2024/03/04 04:32:21;;;;;;;14.30;12.63;;;;;;;;;;5053689;28;20025;-58
2024/03/04 04:34:47;;;;;;;14.77;11.55;;;;;;;;;;5053489;28;20037;-58
2024/03/04 04:37:13;;;;;;;14.73;12.48;;;;;;;;;;5053350;28;20028;-58
2024/03/04 04:39:40;;;;;;;15.23;12.20;;;;;;;;;;5057154;28;20517;-58
2024/03/04 04:42:06;;;;;;;16.10;12.50;;;;;;;;;;5057155;28;20107;-58
2024/03/04 04:44:32;;;;;;;15.18;12.43;;;;;;;;;;5057514;28;20036;-58
2024/03/04 04:46:58;;;;;;;13.80;11.85;;;;;;;;;;5057735;28;20052;-58
2024/03/04 04:49:24;;;;;;;15.77;12.75;;;;;;;;;;5058127;28;20067;-58
2024/03/04 04:51:52;;;;;;;16.15;12.68;;;;;;;;;;5057518;28;20036;-58
2024/03/04 04:54:18;;;;;;;17.55;13.38;;;;;;;;;;5057248;28;20449;-57
2024/03/04 04:56:45;;;;;;;17.33;13.27;;;;;;;;;;5057080;28;20040;-58
2024/03/04 04:59:11;;;;;;;15.00;12.80;;;;;;;;;;5057112;28;20429;-58
2024/03/04 05:01:37;;;;;;;16.58;13.55;;;;;;;;;;5057544;28;20028;-57
2024/03/04 05:04:03;;;;;;;15.70;13.15;;;;;;;;;;5056726;28;20033;-58
2024/03/04 05:06:29;;;;;;;16.27;13.30;;;;;;;;;;5057553;28;20362;-58
2024/03/04 05:08:55;;;;;;;16.33;13.13;;;;;;;;;;5057506;28;20469;-58
2024/03/04 05:11:22;;;;;;;24.95;13.90;;;;;;;;;;5057464;28;20021;-58
2024/03/04 05:13:48;;;;;;;17.60;13.95;;;;;;;;;;5057391;28;20072;-58
2024/03/04 05:16:15;;;;;;;17.35;13.88;;;;;;;;;;5056873;28;20036;-58
2024/03/04 05:18:41;;;;;;;17.60;15.05;;;;;;;;;;5056884;28;20401;-57
2024/03/04 05:21:09;;;;;;;15.85;14.23;;;;;;;;;;5056688;28;20031;-58
2024/03/04 05:23:35;;;;;;;17.30;14.52;;;;;;;;;;5057160;28;20362;-58
2024/03/04 05:26:01;;;;;;;17.98;14.55;;;;;;;;;;5056601;28;20345;-58
2024/03/04 05:28:27;;;;;;;16.85;14.38;;;;;;;;;;5057093;28;20025;-59
2024/03/04 05:30:53;;;;;;;16.80;13.70;;;;;;;;;;5057067;28;20415;-59
2024/03/04 05:33:20;;;;;;;19.63;14.68;;;;;;;;;;5056873;28;20037;-59
2024/03/04 05:35:46;;;;;;;21.70;17.20;;;;;;;;;;5056386;28;20025;-59
2024/03/04 05:38:12;;;;;;;17.70;13.60;;;;;;;;;;5056902;28;20115;-59
2024/03/04 05:40:38;;;;;;;21.83;16.70;;;;;;;;;;5056738;28;20190;-59
2024/03/04 05:43:05;;;;;;;23.60;15.20;;;;;;;;;;5056859;28;20035;-59
2024/03/04 05:45:31;;;;;;;21.40;15.50;;;;;;;;;;5056300;28;20041;-59
2024/03/04 05:47:57;;;;;;;17.08;15.27;;;;;;;;;;5056761;28;20067;-59
2024/03/04 05:50:24;;;;;;;20.05;16.10;;;;;;;;;;5055553;28;20029;-59
2024/03/04 05:52:50;;;;;;;22.60;16.58;;;;;;;;;;5055993;28;20057;-59
2024/03/04 05:55:19;;;;;;;20.90;16.98;;;;;;;;;;5055982;28;20048;-59
2024/03/04 05:57:48;;;;;;;21.05;16.30;;;;;;;;;;5056478;28;20053;-59
2024/03/04 06:00:14;;;;;;;20.85;15.18;;;;;;;;;;5056111;28;20029;-59
2024/03/04 06:02:43;;;;;;;23.77;18.27;;;;;;;;;;5055748;28;20096;-59
2024/03/04 06:05:13;;;;;;;21.77;16.45;;;;;;;;;;5055437;28;20064;-58
2024/03/04 06:07:40;;;;;;;23.35;18.10;;;;;;;;;;5055847;28;20060;-54
2024/03/04 06:10:06;;;;;;;24.05;17.48;;;;;;;;;;5056792;28;20025;-58
2024/03/04 06:12:32;;;;;;;22.98;17.30;;;;;;;;;;5056455;28;20025;-58
2024/03/04 06:14:58;;;;;;;18.73;16.50;;;;;;;;;;5055539;28;20076;-58
2024/03/04 06:17:23;;;;;;;22.95;16.58;;;;;;;;;;5056274;28;20025;-56
2024/03/04 06:19:49;;;;;;;22.38;18.27;;;;;;;;;;5055868;28;20104;-56
2024/03/04 06:22:15;;;;;;;23.98;19.40;;;;;;;;;;5055581;28;20056;-56
2024/03/04 06:24:42;;;;;;;27.80;20.10;;;;;;;;;;5055573;28;20082;-54
2024/03/04 06:27:08;;;;;;;24.23;19.17;;;;;;;;;;5055370;28;20037;-58
2024/03/04 06:32:45;;;;;;;;;;;;;;;;;;5055933;28;20434;-56
2024/03/04 06:35:10;;;;;;;27.90;18.10;;;;;;;;;;5055841;28;19909;-55
2024/03/04 06:37:37;;;;;;;30.48;19.88;;;;;;;;;;5055274;28;20364;-55
2024/03/04 06:40:03;;;;;;;30.95;20.80;;;;;;;;;;5054985;28;20448;-56
2024/03/04 06:42:29;;;;;;;28.40;21.77;;;;;;;;;;5055505;28;20466;-57
2024/03/04 06:44:55;;;;;;;33.42;21.05;;;;;;;;;;5054298;28;20043;-55
2024/03/04 06:47:21;;;;;;;33.10;21.85;;;;;;;;;;5055089;28;20453;-56
2024/03/04 06:49:48;;;;;;;32.28;23.13;;;;;;;;;;5055085;28;20025;-56
2024/03/04 06:52:14;;;;;;;33.30;20.92;;;;;;;;;;5055013;28;20071;-56
2024/03/04 06:54:40;;;;;;;33.60;22.73;;;;;;;;;;5055784;28;20443;-56
2024/03/04 06:57:06;;;;;;;34.75;22.27;;;;;;;;;;5055015;28;20053;-56
2024/03/04 06:59:32;;;;;;;27.58;23.00;;;;;;;;;;5054598;28;20548;-56
2024/03/04 07:01:58;;;;;;;30.38;22.35;;;;;;;;;;5054525;28;20115;-56
2024/03/04 07:04:24;;;;;;;30.80;22.23;;;;;;;;;;5054981;28;20063;-56
2024/03/04 07:06:51;;;;;;;33.28;22.00;;;;;;;;;;5055226;28;20052;-57
2024/03/04 07:09:17;;;;;;;30.30;21.15;;;;;;;;;;5054937;28;20103;-56
2024/03/04 07:11:43;;;;;;;29.88;23.00;;;;;;;;;;5054732;28;20032;-56
2024/03/04 07:14:08;;;;;;;28.52;22.60;;;;;;;;;;5054703;28;20041;-56
2024/03/04 07:16:34;;;;;;;29.73;21.58;;;;;;;;;;5054595;28;20067;-56
2024/03/04 07:19:00;;;;;;;29.40;21.88;;;;;;;;;;5054208;28;20025;-55
2024/03/04 07:21:26;;;;;;;34.92;23.85;;;;;;;;;;5054682;28;20070;-57
2024/03/04 07:23:52;;;;;;;28.20;22.48;;;;;;;;;;5053984;28;20375;-57
2024/03/04 07:26:21;;;;;;;30.83;23.15;;;;;;;;;;5054844;28;20033;-55
2024/03/04 07:28:47;;;;;;;31.38;24.35;;;;;;;;;;5054425;28;20463;-55
2024/03/04 07:31:13;;;;;;;31.40;23.33;;;;;;;;;;5054902;28;20151;-57
2024/03/04 07:33:40;;;;;;;35.10;23.30;;;;;;;;;;5054271;28;20029;-56
2024/03/04 07:36:06;;;;;;;32.10;23.48;;;;;;;;;;5054967;28;20036;-57
2024/03/04 07:38:32;;;;;;;31.45;24.35;;;;;;;;;;5054576;28;20053;-57
2024/03/04 07:40:58;;;;;;;31.30;23.80;;;;;;;;;;5054271;28;20106;-57
2024/03/04 07:43:24;;;;;;;38.67;25.77;;;;;;;;;;5054581;28;20304;-57
2024/03/04 07:45:50;;;;;;;31.65;24.23;;;;;;;;;;5054058;28;20082;-56
2024/03/04 07:48:16;;;;;;;33.22;23.92;;;;;;;;;;5054630;28;20025;-56
2024/03/04 07:50:42;;;;;;;30.88;23.67;;;;;;;;;;5054022;28;20455;-56
2024/03/04 07:53:07;;;;;;;31.92;22.38;;;;;;;;;;5053667;28;20029;-54
2024/03/04 07:55:34;;;;;;;32.63;22.05;;;;;;;;;;5053926;28;20102;-57
2024/03/04 07:57:59;;;;;;;31.05;23.40;;;;;;;;;;5054515;28;20382;-55
2024/03/04 08:00:25;;;;;;;33.65;23.83;;;;;;;;;;5053946;28;20125;-56
2024/03/04 08:02:51;;;;;;;35.85;22.48;;;;;;;;;;5053718;28;20025;-54
2024/03/04 08:05:17;;;;;;;31.63;20.30;;;;;;;;;;5054320;28;20071;-57
2024/03/04 08:07:43;;;;;;;26.67;22.23;;;;;;;;;;5053912;28;20070;-57
2024/03/04 08:10:11;;;;;;;29.90;22.58;;;;;;;;;;5053469;28;20029;-55
2024/03/04 08:12:37;;;;;;;28.02;21.65;;;;;;;;;;5053486;28;20029;-56
2024/03/04 08:15:03;;;;;;;34.88;23.00;;;;;;;;;;5054237;28;20060;-53
2024/03/04 08:17:31;;;;;;;26.30;22.45;;;;;;;;;;5054072;28;20355;-57
2024/03/04 08:19:58;;;;;;;29.77;21.77;;;;;;;;;;5054370;28;20037;-55
2024/03/04 08:22:24;;;;;;;29.00;21.65;;;;;;;;;;5054475;28;20029;-58
2024/03/04 08:24:50;;;;;;;32.58;22.65;;;;;;;;;;5053519;28;20510;-56
2024/03/04 08:27:16;;;;;;;25.27;19.70;;;;;;;;;;5053325;28;20033;-56
2024/03/04 08:29:42;;;;;;;34.70;22.00;;;;;;;;;;5053642;28;20022;-57
2024/03/04 08:32:08;;;;;;;28.10;21.30;;;;;;;;;;5054369;28;20402;-56
2024/03/04 08:34:34;;;;;;;35.28;22.70;;;;;;;;;;5053546;28;20079;-56
2024/03/04 08:37:00;;;;;;;32.40;22.00;;;;;;;;;;5054309;28;20397;-56
2024/03/04 08:39:26;;;;;;;33.78;22.50;;;;;;;;;;5053785;28;20024;-55
2024/03/04 08:41:52;;;;;;;31.35;22.45;;;;;;;;;;5053556;28;20025;-57
2024/03/04 08:44:18;;;;;;;31.10;20.77;;;;;;;;;;5053647;28;20415;-57
2024/03/04 08:46:44;;;;;;;35.67;22.60;;;;;;;;;;5053377;28;20057;-56
2024/03/04 08:49:10;;;;;;;34.28;22.23;;;;;;;;;;5053571;28;20429;-57
2024/03/04 08:51:38;;;;;;;35.88;21.25;;;;;;;;;;5053031;28;20075;-55
2024/03/04 08:54:04;;;;;;;28.33;21.52;;;;;;;;;;5054201;28;20029;-57
2024/03/04 08:56:30;;;;;;;33.58;22.83;;;;;;;;;;5053620;28;20045;-57
2024/03/04 08:58:58;;;;;;;29.52;22.20;;;;;;;;;;5053598;28;20036;-57
2024/03/04 09:01:25;;;;;;;30.45;22.60;;;;;;;;;;5054119;28;20055;-57
2024/03/04 09:03:51;;;;;;;35.25;24.00;;;;;;;;;;5053239;28;20425;-55
2024/03/04 09:06:17;;;;;;;29.60;21.00;;;;;;;;;;5053451;28;20135;-57
2024/03/04 09:08:43;;;;;;;30.08;22.45;;;;;;;;;;5053837;28;20025;-57
2024/03/04 09:11:10;;;;;;;27.88;21.42;;;;;;;;;;5053792;28;20025;-57
2024/03/04 09:13:36;;;;;;;34.17;21.55;;;;;;;;;;5053147;28;20032;-57
2024/03/04 09:16:03;;;;;;;29.58;22.92;;;;;;;;;;5053224;28;20522;-57
2024/03/04 09:18:29;;;;;;;31.08;22.55;;;;;;;;;;5052105;28;20033;-57
2024/03/04 09:20:55;;;;;;;31.67;22.67;;;;;;;;;;5052858;28;20029;-57
2024/03/04 09:23:21;;;;;;;28.88;21.15;;;;;;;;;;5053021;28;20120;-58
2024/03/04 09:25:47;;;;;;;32.28;23.17;;;;;;;;;;5056658;28;20053;-57
2024/03/04 09:28:14;;;;;;;39.92;23.80;;;;;;;;;;5056707;28;20055;-57
2024/03/04 09:30:40;;;;;;;27.92;20.05;;;;;;;;;;5056678;28;20082;-57
2024/03/04 09:33:07;;;;;;;35.80;23.02;;;;;;;;;;5056603;28;20025;-57
2024/03/04 09:35:33;;;;;;;36.80;22.55;;;;;;;;;;5056463;28;20035;-56
2024/03/04 09:37:59;;;;;;;28.55;23.63;;;;;;;;;;5056197;28;20451;-57
2024/03/04 09:40:25;;;;;;;35.08;21.67;;;;;;;;;;5056215;28;20025;-57
2024/03/04 09:42:51;;;;;;;35.53;23.42;;;;;;;;;;5056367;28;20025;-56
2024/03/04 09:45:20;;;;;;;29.40;21.95;;;;;;;;;;5057231;28;20068;-56
2024/03/04 09:47:49;;;;;;;31.00;22.05;;;;;;;;;;5056913;28;20103;-57
2024/03/04 09:50:16;;;;;;;39.50;24.40;;;;;;;;;;5056907;28;20070;-56
2024/03/04 09:52:44;;;;;;;34.13;22.98;;;;;;;;;;5055946;28;20455;-57
2024/03/04 09:55:10;;;;;;;36.35;24.55;;;;;;;;;;5057029;28;20075;-57
2024/03/04 09:57:36;;;;;;;37.35;27.15;;;;;;;;;;5055632;28;20045;-56
2024/03/04 10:00:03;;;;;;;40.08;27.40;;;;;;;;;;5056881;28;20104;-55
2024/03/04 10:02:29;;;;;;;30.38;24.35;;;;;;;;;;5055999;28;20029;-57
2024/03/04 10:04:56;;;;;;;37.63;26.98;;;;;;;;;;5055934;28;20120;-56
2024/03/04 10:07:23;;;;;;;36.25;25.13;;;;;;;;;;5055912;28;20422;-57
2024/03/04 10:09:53;;;;;;;38.47;26.00;;;;;;;;;;5056455;28;20383;-57
2024/03/04 10:12:19;;;;;;;42.72;27.13;;;;;;;;;;5056425;28;20074;-57
2024/03/04 10:15:00;;;;;;;36.85;25.75;;;;;;;;;;5055800;28;20115;-57
2024/03/04 10:17:27;;;;;;;38.22;26.65;;;;;;;;;;5055773;28;20033;-57
2024/03/04 10:20:05;;;;;;;44.90;28.77;;;;;;;;;;5056306;28;20363;-57
2024/03/04 10:22:34;;;;;;;35.60;26.30;;;;;;;;;;5056519;28;20025;-56
2024/03/04 10:25:06;;;;;;;40.58;28.33;;;;;;;;;;5055699;28;20056;-56
2024/03/04 10:27:33;;;;;;;37.08;26.80;;;;;;;;;;5055503;28;20120;-56
2024/03/04 10:30:26;;;;;;;43.05;26.35;;;;;;;;;;5055472;28;20386;-57
2024/03/04 10:32:52;;;;;;;42.63;28.45;;;;;;;;;;5056243;28;20065;-57
2024/03/04 10:35:18;;;;;;;41.70;28.02;;;;;;;;;;5054637;28;20083;-57
2024/03/04 10:37:45;;;;;;;45.33;29.65;;;;;;;;;;5055142;28;20032;-57
2024/03/04 10:40:11;;;;;;;38.15;26.63;;;;;;;;;;5055789;28;20052;-57
2024/03/04 10:42:41;;;;;;;42.40;29.27;;;;;;;;;;5055283;28;20370;-57
2024/03/04 10:45:08;;;;;;;39.53;27.27;;;;;;;;;;5055938;28;20037;-58
2024/03/04 10:47:34;;;;;;;34.92;26.00;;;;;;;;;;5055154;28;20112;-57
2024/03/04 10:50:00;;;;;;;44.40;27.77;;;;;;;;;;5055720;28;20028;-57
2024/03/04 10:52:26;;;;;;;40.30;28.25;;;;;;;;;;5055046;28;20025;-57
2024/03/04 10:54:54;;;;;;;39.42;29.17;;;;;;;;;;5055025;28;20033;-56
2024/03/04 10:57:27;;;;;;;37.90;27.35;;;;;;;;;;5055349;28;20081;-56
2024/03/04 10:59:57;;;;;;;40.05;27.65;;;;;;;;;;5055461;28;20112;-57
2024/03/04 11:02:38;;;;;;;35.92;27.60;;;;;;;;;;5055284;28;20093;-57
2024/03/04 11:05:08;;;;;;;42.38;26.77;;;;;;;;;;5055406;28;20123;-56
2024/03/04 11:07:36;;;;;;;38.70;26.13;;;;;;;;;;5054920;28;20025;-57
2024/03/04 11:10:07;;;;;;;41.00;26.65;;;;;;;;;;5054996;28;20070;-57
2024/03/04 11:12:33;;;;;;;45.15;27.17;;;;;;;;;;5055513;28;20451;-54
2024/03/04 11:15:03;;;;;;;47.30;27.95;;;;;;;;;;5055401;28;20138;-55
2024/03/04 11:17:41;;;;;;;38.22;26.08;;;;;;;;;;5054523;28;20474;-57
2024/03/04 11:20:07;;;;;;;34.20;25.90;;;;;;;;;;5055297;28;20026;-56
2024/03/04 11:22:34;;;;;;;36.20;27.67;;;;;;;;;;5054589;28;20037;-57
2024/03/04 11:25:01;;;;;;;37.58;26.10;;;;;;;;;;5054331;28;20036;-56
2024/03/04 11:27:27;;;;;;;41.47;27.38;;;;;;;;;;5055187;28;20079;-56
2024/03/04 11:29:54;;;;;;;37.10;25.40;;;;;;;;;;5054380;28;20056;-57
2024/03/04 11:32:28;;;;;;;40.20;26.63;;;;;;;;;;5054393;28;20025;-58
2024/03/04 11:34:58;;;;;;;35.35;26.80;;;;;;;;;;5054969;28;20032;-57
2024/03/04 11:37:31;;;;;;;41.53;28.10;;;;;;;;;;5054769;28;20340;-57
2024/03/04 11:40:03;;;;;;;41.83;26.25;;;;;;;;;;5054849;28;20025;-56
2024/03/04 11:42:33;;;;;;;33.45;25.23;;;;;;;;;;5054401;28;20120;-58
2024/03/04 11:44:59;;;;;;;36.47;26.13;;;;;;;;;;5054921;28;20044;-57
2024/03/04 11:47:32;;;;;;;40.88;26.42;;;;;;;;;;5053526;28;20024;-56
2024/03/04 11:49:59;;;;;;;44.25;26.73;;;;;;;;;;5054411;28;20025;-57
2024/03/04 11:52:26;;;;;;;40.70;26.60;;;;;;;;;;5053884;28;20033;-57
2024/03/04 11:54:54;;;;;;;35.30;26.05;;;;;;;;;;5053972;28;20052;-57
2024/03/04 11:57:20;;;;;;;34.38;25.02;;;;;;;;;;5054331;28;20047;-56
2024/03/04 12:00:04;;;;;;;41.42;25.90;;;;;;;;;;5053923;28;20053;-56
2024/03/04 12:02:30;;;;;;;35.38;26.02;;;;;;;;;;5053826;28;20033;-57
2024/03/04 12:04:58;;;;;;;37.10;25.38;;;;;;;;;;5054292;28;20065;-56
2024/03/04 12:07:25;;;;;;;39.55;27.92;;;;;;;;;;5054430;28;20056;-56
2024/03/04 12:09:56;;;;;;;40.70;29.33;;;;;;;;;;5053828;28;20459;-57
2024/03/04 12:12:22;;;;;;;39.08;26.50;;;;;;;;;;5054287;28;20033;-56
2024/03/04 12:14:48;;;;;;;47.53;27.13;;;;;;;;;;5053313;28;20116;-56
2024/03/04 12:17:15;;;;;;;40.15;28.15;;;;;;;;;;5054609;28;20043;-55
2024/03/04 12:19:51;;;;;;;35.95;26.50;;;;;;;;;;5054592;28;20032;-56
2024/03/04 12:22:17;;;;;;;36.53;25.70;;;;;;;;;;5054180;28;20040;-57
2024/03/04 12:24:43;;;;;;;41.42;26.83;;;;;;;;;;5053601;28;20473;-57
2024/03/04 12:27:10;;;;;;;41.53;25.38;;;;;;;;;;5054692;28;20254;-57
2024/03/04 12:29:36;;;;;;;40.65;26.60;;;;;;;;;;5054110;28;20108;-57
2024/03/04 12:32:02;;;;;;;37.55;25.63;;;;;;;;;;5054122;28;20033;-56
2024/03/04 12:34:29;;;;;;;35.20;25.38;;;;;;;;;;5053506;28;20059;-54
2024/03/04 12:36:59;;;;;;;39.47;24.95;;;;;;;;;;5053527;28;20076;-57
2024/03/04 12:39:25;;;;;;;36.45;24.52;;;;;;;;;;5054056;28;20025;-57
2024/03/04 12:41:51;;;;;;;32.40;25.13;;;;;;;;;;5053459;28;20028;-57
2024/03/04 12:44:18;;;;;;;40.05;26.48;;;;;;;;;;5053898;28;20040;-56
2024/03/04 12:46:46;;;;;;;37.50;25.85;;;;;;;;;;5053383;28;20041;-56
2024/03/04 12:49:12;;;;;;;36.15;24.70;;;;;;;;;;5054151;28;20025;-57
2024/03/04 12:51:38;;;;;;;36.00;23.85;;;;;;;;;;5053357;28;20029;-56
2024/03/04 12:54:04;;;;;;;43.35;24.60;;;;;;;;;;5053318;28;20021;-57
2024/03/04 12:56:31;;;;;;;36.78;22.35;;;;;;;;;;5053484;28;20045;-56
2024/03/04 12:58:57;;;;;;;28.27;21.58;;;;;;;;;;5054459;28;20032;-56
2024/03/04 13:01:26;;;;;;;31.10;23.42;;;;;;;;;;5057155;28;20025;-57
2024/03/04 13:03:53;;;;;;;29.85;23.50;;;;;;;;;;5057416;28;20025;-58
2024/03/04 13:06:19;;;;;;;31.92;23.13;;;;;;;;;;5057010;28;20056;-56
2024/03/04 13:08:45;;;;;;;29.50;22.23;;;;;;;;;;5057970;28;20033;-58
2024/03/04 13:11:11;;;;;;;31.15;21.52;;;;;;;;;;5057526;28;20025;-57
2024/03/04 13:13:37;;;;;;;34.38;23.40;;;;;;;;;;5057545;28;20044;-57
2024/03/04 13:16:03;;;;;;;37.83;23.63;;;;;;;;;;5056829;28;20025;-57
2024/03/04 13:18:31;;;;;;;31.90;21.65;;;;;;;;;;5057373;28;20029;-57
2024/03/04 13:20:57;;;;;;;31.52;20.95;;;;;;;;;;5056844;28;20120;-57
2024/03/04 13:23:23;;;;;;;34.03;23.20;;;;;;;;;;5056642;28;20148;-57
2024/03/04 13:25:49;;;;;;;29.98;21.60;;;;;;;;;;5056494;28;20064;-58
2024/03/04 13:28:15;;;;;;;29.55;21.55;;;;;;;;;;5057503;28;20337;-57
2024/03/04 13:30:41;;;;;;;30.83;22.35;;;;;;;;;;5056674;28;20120;-58
2024/03/04 13:33:07;;;;;;;30.48;21.08;;;;;;;;;;5056623;28;20021;-58
2024/03/04 13:35:33;;;;;;;27.15;19.50;;;;;;;;;;5056560;28;20098;-57
2024/03/04 13:37:59;;;;;;;31.67;20.33;;;;;;;;;;5056995;28;20098;-57
2024/03/04 13:40:25;;;;;;;30.70;21.95;;;;;;;;;;5056992;28;20410;-58
2024/03/04 13:42:51;;;;;;;30.63;21.20;;;;;;;;;;5056233;28;20029;-58
2024/03/04 13:45:17;;;;;;;30.50;22.15;;;;;;;;;;5057031;28;20079;-57
2024/03/04 13:47:43;;;;;;;25.05;20.67;;;;;;;;;;5056233;28;20056;-56
2024/03/04 13:50:12;;;;;;;30.92;21.73;;;;;;;;;;5056804;28;20025;-56
2024/03/04 13:52:38;;;;;;;30.95;21.27;;;;;;;;;;5055885;28;20131;-57
2024/03/04 13:55:04;;;;;;;33.65;20.65;;;;;;;;;;5056873;28;20054;-57
2024/03/04 13:57:32;;;;;;;32.70;19.13;;;;;;;;;;5056220;28;20052;-58
2024/03/04 13:59:58;;;;;;;29.73;20.42;;;;;;;;;;5056072;28;20158;-57
2024/03/04 14:02:23;;;;;;;26.05;17.85;;;;;;;;;;5055791;28;20056;-58
2024/03/04 14:04:49;;;;;;;26.73;19.10;;;;;;;;;;5055680;28;20031;-57
2024/03/04 14:07:15;;;;;;;30.88;18.40;;;;;;;;;;5055688;28;20033;-57
2024/03/04 14:09:41;;;;;;;29.50;20.33;;;;;;;;;;5055846;28;20056;-58
2024/03/04 14:12:07;;;;;;;26.55;18.98;;;;;;;;;;5055137;28;20029;-58
2024/03/04 14:14:33;;;;;;;24.50;19.42;;;;;;;;;;5055965;28;20429;-56
2024/03/04 14:17:00;;;;;;;32.22;20.35;;;;;;;;;;5055707;28;20061;-58
2024/03/04 14:19:25;;;;;;;28.30;18.65;;;;;;;;;;5056064;28;20036;-56
2024/03/04 14:21:52;;;;;;;28.02;19.55;;;;;;;;;;5056494;28;20371;-57
2024/03/04 14:24:19;;;;;;;30.20;18.73;;;;;;;;;;5055591;28;20033;-57